logo
Search for airport 
image banner adimage banner adimage banner ad
image banner ad

FAMQ - Montagu

Located in Maclear, South Africa

ICAO - FAMQ, IATA -

Data provided by Airmate  

General information

Coordinates: S33°47'53" E20°9'16"
Elevation is 948 feet MSL.
 
View others Airports in Eastern Cape

Operational data

Special qualification required
Current time UTC:
Current local time:
Weather at : - ( 0 km )
METAR: PAKU 251645Z 34007KT 10SM R06/P6000FT BKN008 OVC018 M04/M05 A3009
View NOTAMs / SUP AIP / TFR affecting this airport [VIEW]
Communications frequencies: [VIEW]

Runways:

RWY identifierQFULength (ft)Width (ft)SurfaceLDA (ft)
06314°229739SAND
24134°229739SAND

Airport contact information

Address: Maclear South Africa

Satellite view of FAMQ